createdAt,value
2022-11-09T07:18:35.495Z,70.77
2022-11-09T10:25:57.694Z,11.27
2022-11-09T10:28:20.343Z,18.33
2022-11-09T10:30:51.447Z,31.27
2022-11-09T10:33:41.588Z,18.53
2022-11-09T10:36:19.008Z,11.07
2022-11-09T10:38:51.839Z,12.47
2022-11-09T10:41:44.680Z,22.40
2022-11-09T10:44:32.408Z,19.77
2022-11-09T10:47:20.848Z,11.03
2022-11-09T10:50:23.431Z,9.97
2022-11-09T10:53:15.498Z,12.97
2022-11-09T10:56:20.215Z,16.53
2022-11-09T10:59:40.831Z,14.73
2022-11-09T11:02:48.162Z,9.57
2022-11-09T11:05:37.733Z,11.73
2022-11-09T11:08:36.301Z,12.17
2022-11-09T11:11:34.331Z,11.90
2022-11-09T11:14:30.377Z,11.40
2022-11-09T11:17:27.949Z,16.30
2022-11-09T11:20:30.266Z,16.97
2022-11-09T11:23:21.221Z,22.23
2022-11-09T11:26:35.948Z,22.00
2022-11-09T11:29:48.548Z,14.33
2022-11-09T11:32:35.953Z,15.90
2022-11-09T11:35:32.439Z,10.17
2022-11-09T11:38:28.865Z,15.23
2022-11-09T11:41:39.663Z,16.87
2022-11-09T11:44:38.836Z,16.93
2022-11-09T11:47:29.840Z,18.40
2022-11-09T11:50:27.527Z,12.50
2022-11-09T11:53:38.235Z,16.67
2022-11-09T11:56:32.943Z,13.87
2022-11-09T11:59:51.298Z,22.97
2022-11-09T12:03:26.745Z,16.67
2022-11-09T12:06:25.747Z,18.43
2022-11-09T12:09:30.731Z,13.53
2022-11-09T12:12:32.329Z,17.13
2022-11-09T12:15:28.505Z,13.13
2022-11-09T12:18:29.835Z,15.57
2022-11-09T12:21:18.911Z,13.43
2022-11-09T12:24:17.259Z,18.27
2022-11-09T12:27:33.877Z,20.70
2022-11-09T12:30:24.242Z,15.03
2022-11-09T12:33:17.052Z,40.70
2022-11-09T12:36:10.965Z,18.77
2022-11-09T12:39:05.512Z,38.10
2022-11-09T12:41:55.472Z,22.87
2022-11-09T12:44:49.665Z,19.23
2022-11-09T12:47:42.017Z,22.10
2022-11-09T12:50:30.207Z,22.33
2022-11-09T12:53:19.437Z,17.60
2022-11-09T12:56:12.784Z,24.07
2022-11-09T12:59:21.236Z,22.90
2022-11-09T13:02:25.383Z,26.03
2022-11-09T13:05:31.023Z,25.90
2022-11-09T13:08:22.541Z,23.83
2022-11-09T13:11:19.641Z,18.87
2022-11-09T13:14:35.880Z,17.50
2022-11-09T13:18:03.173Z,32.07
2022-11-09T13:20:56.594Z,16.33
2022-11-09T13:24:03.248Z,26.10
2022-11-09T13:26:58.417Z,38.53
2022-11-09T13:29:56.642Z,16.17
2022-11-09T13:33:20.740Z,16.80
2022-11-09T13:36:21.290Z,14.87
2022-11-09T13:39:44.483Z,21.13
2022-11-09T13:42:34.629Z,37.33
2022-11-09T13:45:31.441Z,24.30
2022-11-09T13:48:44.581Z,13.17
2022-11-09T13:51:47.399Z,15.30
2022-11-09T13:54:39.632Z,23.20
2022-11-09T13:57:28.504Z,26.47
2022-11-09T14:00:23.698Z,49.40
2022-11-09T14:03:20.730Z,56.30
2022-11-09T14:06:13.488Z,44.47
2022-11-09T14:09:04.122Z,33.83
2022-11-09T14:12:06.533Z,42.70
2022-11-09T14:15:07.099Z,48.10
2022-11-09T14:18:09.055Z,32.67
2022-11-09T14:21:01.437Z,30.70
2022-11-09T14:23:50.463Z,35.07
2022-11-09T14:26:39.459Z,33.50
2022-11-09T14:29:33.316Z,31.67
2022-11-09T14:32:31.106Z,36.97
2022-11-09T14:35:28.862Z,34.47
2022-11-09T14:38:20.228Z,43.30
2022-11-09T14:41:23.047Z,46.23
2022-11-09T14:44:18.141Z,47.97
2022-11-09T14:47:07.564Z,56.27
2022-11-09T14:49:55.415Z,73.83
2022-11-09T14:52:43.603Z,57.67
2022-11-09T14:55:31.971Z,55.90
2022-11-09T14:58:20.496Z,64.57
2022-11-09T15:01:17.374Z,52.70
2022-11-09T15:04:10.075Z,82.67
2022-11-09T15:07:01.328Z,56.30
2022-11-09T15:09:51.444Z,52.93
2022-11-09T15:12:43.830Z,134.07
2022-11-09T15:15:35.916Z,87.77
2022-11-09T15:18:33.423Z,92.37
2022-11-09T15:21:33.932Z,106.07
2022-11-09T15:24:22.780Z,96.50
2022-11-09T15:27:30.459Z,106.97
2022-11-09T15:30:36.504Z,132.53
2022-11-09T15:33:30.764Z,131.83
2022-11-09T15:36:29.590Z,153.33
2022-11-09T15:39:19.162Z,148.27
2022-11-09T15:42:07.285Z,170.57
2022-11-09T15:44:56.951Z,201.30
2022-11-09T15:47:51.614Z,201.03
2022-11-09T15:50:41.056Z,147.47
2022-11-09T15:53:28.750Z,126.97
2022-11-09T15:56:19.334Z,149.70
2022-11-09T15:59:07.563Z,178.83
2022-11-09T16:01:55.360Z,159.03
2022-11-09T16:04:43.113Z,145.27
2022-11-09T16:07:32.381Z,163.67
2022-11-09T16:10:23.346Z,120.70
2022-11-09T16:13:12.497Z,91.50
2022-11-09T16:16:04.467Z,93.70
2022-11-09T16:18:51.612Z,100.43
2022-11-09T16:21:40.440Z,95.77
2022-11-09T16:24:29.498Z,100.57
2022-11-09T16:27:43.375Z,102.30
2022-11-09T16:30:25.085Z,105.70
2022-11-09T16:33:12.446Z,91.57
2022-11-09T16:36:02.574Z,100.50
2022-11-09T16:38:52.937Z,89.73
2022-11-09T16:41:43.093Z,93.03
2022-11-09T16:44:35.526Z,78.20
2022-11-09T16:47:23.318Z,84.13
2022-11-09T16:50:11.229Z,77.87
2022-11-09T16:52:58.750Z,74.97
2022-11-09T16:55:46.029Z,68.57
2022-11-09T16:58:34.719Z,67.07
2022-11-09T17:01:23.734Z,64.13
2022-11-09T17:04:11.641Z,74.90
2022-11-09T17:06:58.957Z,70.80
2022-11-09T17:09:46.309Z,60.37
2022-11-09T17:12:34.205Z,62.97
2022-11-09T17:15:23.415Z,64.80
2022-11-09T17:18:13.103Z,58.13
2022-11-09T17:21:01.180Z,64.07
2022-11-09T17:23:49.686Z,58.13
2022-11-09T17:26:37.892Z,53.63
2022-11-09T17:29:25.269Z,60.83
2022-11-09T17:32:14.429Z,55.50
2022-11-09T17:35:01.762Z,59.47
2022-11-09T17:37:49.627Z,54.80
2022-11-09T17:40:36.914Z,53.73
2022-11-09T17:43:24.325Z,53.80
2022-11-09T17:46:13.280Z,53.27
2022-11-09T17:49:07.048Z,67.90
2022-11-09T17:51:56.984Z,70.57
2022-11-09T17:54:44.535Z,60.23
2022-11-09T17:57:32.965Z,60.13
2022-11-09T18:00:21.257Z,56.30
2022-11-09T18:03:08.880Z,80.73
2022-11-09T18:05:57.666Z,66.63
2022-11-09T18:08:45.644Z,67.20
2022-11-09T18:11:34.060Z,60.93
2022-11-09T18:14:21.710Z,56.37
2022-11-09T18:17:09.772Z,62.40
2022-11-09T18:19:57.987Z,61.40
2022-11-09T18:22:46.875Z,58.80
2022-11-09T18:25:34.079Z,55.17
2022-11-09T18:28:21.932Z,66.47
2022-11-09T18:31:11.295Z,51.27
2022-11-09T18:33:58.484Z,55.87
2022-11-09T18:36:46.130Z,46.70
2022-11-09T18:39:35.291Z,47.97
2022-11-09T18:42:22.918Z,52.00
2022-11-09T18:45:11.765Z,54.87
2022-11-09T18:47:59.137Z,61.57
2022-11-09T18:50:46.390Z,54.97
2022-11-09T18:53:37.459Z,49.30
2022-11-09T18:56:27.043Z,51.87
2022-11-09T18:59:14.954Z,51.73
2022-11-09T19:02:02.615Z,50.43
2022-11-09T19:04:50.272Z,58.27
2022-11-09T19:07:37.762Z,63.20
2022-11-09T19:10:25.227Z,55.67
2022-11-09T19:13:14.271Z,52.07
2022-11-09T19:16:02.062Z,52.07
2022-11-09T19:18:50.141Z,58.37
2022-11-09T19:21:41.030Z,56.87
2022-11-09T19:24:31.257Z,43.90
2022-11-09T19:27:18.762Z,45.03
2022-11-09T19:30:09.990Z,40.63
2022-11-09T19:32:57.445Z,40.10
2022-11-09T19:35:56.781Z,38.07
2022-11-09T19:38:52.714Z,39.80
2022-11-09T19:41:40.969Z,36.97
2022-11-09T19:44:28.249Z,67.20
2022-11-09T19:47:17.738Z,73.17
2022-11-09T19:50:06.316Z,73.50
2022-11-09T19:52:53.847Z,58.27
2022-11-09T19:55:41.143Z,69.63
2022-11-09T19:58:28.608Z,60.63
2022-11-09T20:01:16.202Z,58.33
2022-11-09T20:04:09.912Z,66.97
2022-11-09T20:06:57.725Z,68.53
2022-11-09T20:09:45.492Z,59.80
2022-11-09T20:12:50.976Z,55.97
2022-11-09T20:15:38.671Z,69.67
2022-11-09T20:18:26.115Z,60.00
2022-11-09T20:21:15.960Z,49.80
2022-11-09T20:24:03.609Z,45.17
2022-11-09T20:26:50.902Z,44.07
2022-11-09T20:29:38.142Z,47.17
2022-11-09T20:32:25.586Z,41.57
2022-11-09T20:35:12.792Z,41.63
2022-11-09T20:38:01.788Z,46.03
2022-11-09T20:40:55.962Z,39.97
2022-11-09T20:43:43.958Z,42.50
2022-11-09T20:46:35.672Z,46.37
2022-11-09T20:49:24.224Z,40.07
2022-11-09T20:52:11.825Z,44.40
2022-11-09T20:55:01.885Z,43.43
2022-11-09T20:57:49.114Z,43.37
2022-11-09T21:00:43.822Z,42.40
2022-11-09T21:03:31.251Z,38.00
2022-11-09T21:06:18.870Z,40.07
2022-11-09T21:09:06.341Z,39.07
2022-11-09T21:12:12.933Z,40.03
2022-11-09T21:15:00.607Z,42.67
2022-11-09T21:17:48.477Z,36.50
2022-11-09T21:20:36.315Z,39.47
2022-11-09T21:23:41.249Z,47.57
2022-11-09T21:26:46.534Z,43.43
2022-11-09T21:29:53.977Z,42.47
2022-11-09T21:32:42.125Z,41.70
2022-11-09T21:35:29.728Z,43.20
2022-11-09T21:38:16.841Z,36.57
2022-11-09T21:41:25.714Z,37.47
2022-11-09T21:44:14.262Z,44.50
2022-11-09T21:47:03.964Z,47.40
2022-11-09T21:49:51.526Z,37.23
2022-11-09T21:52:38.769Z,40.47
2022-11-09T21:55:26.116Z,43.70
2022-11-09T21:58:13.588Z,76.60
2022-11-09T22:01:02.629Z,89.93
2022-11-09T22:03:51.999Z,122.73
2022-11-09T22:06:40.703Z,106.77
2022-11-09T22:09:35.741Z,103.23
2022-11-09T22:12:44.618Z,130.10
2022-11-09T22:15:50.036Z,121.27
2022-11-09T22:18:55.563Z,130.87
2022-11-09T22:21:44.589Z,116.03
2022-11-09T22:24:32.698Z,103.90
2022-11-09T22:27:20.292Z,103.07
2022-11-09T22:30:08.963Z,114.20
2022-11-09T22:32:56.261Z,113.70
2022-11-09T22:35:43.622Z,94.60
2022-11-09T22:38:33.373Z,86.17
2022-11-09T22:41:20.785Z,108.63
2022-11-09T22:44:08.302Z,104.47
2022-11-09T22:46:56.053Z,108.67
2022-11-09T22:49:43.388Z,95.87
2022-11-09T22:52:30.678Z,96.83
2022-11-09T22:55:20.306Z,89.00
2022-11-09T22:58:09.134Z,99.53
2022-11-09T23:00:57.032Z,108.37
2022-11-09T23:03:44.681Z,115.63
2022-11-09T23:06:34.038Z,123.23
2022-11-09T23:09:21.337Z,115.73
2022-11-09T23:12:10.153Z,118.07
2022-11-09T23:15:06.405Z,106.10
2022-11-09T23:18:12.301Z,100.93
2022-11-09T23:21:01.835Z,101.40
2022-11-09T23:23:50.386Z,102.80
2022-11-09T23:26:37.897Z,91.90
2022-11-09T23:29:26.812Z,104.57
2022-11-09T23:32:14.310Z,113.87
2022-11-09T23:35:01.619Z,104.73
2022-11-09T23:37:48.841Z,102.30
2022-11-09T23:40:37.063Z,111.23
2022-11-09T23:43:24.755Z,102.97
2022-11-09T23:46:15.330Z,100.30
2022-11-09T23:49:02.979Z,100.40
2022-11-09T23:51:50.292Z,104.93
2022-11-09T23:54:37.609Z,106.80
2022-11-09T23:57:24.759Z,101.67
